Киренск

Карта отелей и гостиниц, располагающихся рядом с аэропортом Киренск :

Киренск Иркутская область 57° 46' 22.26" N, 108° 3' 32.22" E
Код аэродрома ИКАО
UIKK
Код аэродрома RU
УИКК
Координаты
N57.77285° E108.05895°
Превышение над уровнем моря
257
Основная полоса
09/27
Курс магнитный
092,2/272,2
Длина основной ВПП
1560
Ширина основной ВПП
40
Покрытие основной ВПП
Твёрдое (асфальт)
Освещение ВПП
По запросу
Тип: 
Аэродром
Класс аэродрома: 
Принадлежность: 
ГА
Статус: 
Действующий
Сайт: 
http://www.kirairport.ru/
E-mail аэродрома: 
Страна: 
Россия
Регион: 
Иркутская область
Город: 
Дополнительная информация: 
Оператор: ООО «Аэропорт «Киренск». Грузонапряженность ВПП до 34,5 тонн. PCN15/F/A/X/T. Посадочные системы: ОПРС, РПМ-200, АРП-"Платан". Стоянка ВС Ан-2: 792 руб/сутки.

Найти трансфер

С помощью этой формы Вы можете найти трансфер из аэропорта Киренск в город, аэропорт или вокзал:

Карта места

Javascript is required to view this map.

Погода в аэропортах:

Авиационная погода в аэропорту Международный

Регион: 
Погода METAR: 
UKLL 171630Z 01004MPS 3600 -SHRA BKN004 BKN030CB 17/16 Q1005 R31/290055 NOSIG
Время наблюдения
2021-09-17T16:30:00Z
Температура C
17.0
Точка росы
16.0
Направление ветра
10
Скорость ветра (узлы)
8
Метео видимость
2.24
Явления погоды
-SHRA
Условия полета
LIFR
Аэропорт подробнее: 

Авиационная погода в Якутске

Регион: 
Погода METAR: 
UEEE 171830Z 30004MPS 9999 -SHRA SCT009 BKN018CB 07/07 Q0997 R23L/290155 NOSIG RMK QFE739
Время наблюдения
2021-09-17T18:30:00Z
Температура C
7.0
Точка росы
7.0
Направление ветра
300
Скорость ветра (узлы)
8
Метео видимость
6.21
Явления погоды
-SHRA
Условия полета
MVFR
Аэропорт подробнее: 

Авиационная погода в Челябинске

Регион: 
Погода METAR: 
USCC 171830Z 28003MPS 9999 -SHRA BKN026CB 07/07 Q1007 R27/290050 TEMPO 2000 SHRA RMK QFE735
Время наблюдения
2021-09-17T18:30:00Z
Температура C
7.0
Точка росы
7.0
Направление ветра
280
Скорость ветра (узлы)
6
Метео видимость
6.21
Явления погоды
-SHRA
Условия полета
MVFR
Аэропорт подробнее: 

Авиационная погода в Ханты-Мансийске

Регион: 
Погода METAR: 
USHH 171830Z 29004MPS 250V320 9999 -RA BKN018 05/05 Q0990 R24/290050 TEMPO 3100 -RA BKN004
Время наблюдения
2021-09-17T18:30:00Z
Температура C
5.0
Точка росы
5.0
Направление ветра
290
Скорость ветра (узлы)
8
Метео видимость
6.21
Явления погоды
-RA
Условия полета
MVFR
Аэропорт подробнее: